北京 の空港の天気 - METARとTAF

北京首都国際空港 ( ZBAA / PEK ) - 中国 北京市
飛行場実況気象(Metar)
観測時間10/04 22:00 CST (10/04 14:00 UTC)
風向・風速東北東 2m/s
視程10km以上
天気現象
なし
気温6℃
湿度76%
気圧1029hPa
METARZBAA 041400Z 06002MPS CAVOK 06/02 Q1029 NOSIG
過去の天気等 Google飛行場航空写真 Wunderground天気予報

過去48時間のMETAR

飛行場予報(TAF)
発表時間: 10/04 17:01 CST (10/04 09:01 UTC)
予報対象時間: 4日20時 CST ~ 5日20時 CST
風向・風速北 4m/s
視程10km以上
なし
TAF ZBAA 040901Z 0412/0512 01004MPS CAVOK TX17/0507Z TN04/0421Z